Accueil
METAR-TAF:

METAR-TAF

Aéroports :

Aéroport Nikola-Tesla de Belgrade

Belgrade, Serbie

latitude: 44-49N, longitude: 020-17E, altitude: 96 m

Observation

Le bulletin a été fait il y a 28 minutes, à 13:00 UTC
Vent 10 kt de ouest
Température 16°C
Humidité 55%
Pression 1020 hPa
Visibilité 10 km ou plus
pas de nuages en-dessous de 1500 mètres et pas de cumulonimbus.

METAR: LYBE 231300Z 27010KT CAVOK 16/07 Q1020 NOSIG

Heure: 15:28 (13:28 UTC)

Prévision

Le bulletin a été fait il y a 2 heures et 28 minutes, à 11:00 UTC
Prévision valable du 23 à 12 UTC au 24 à 12 UTC
Vent 9 kt de ouest
Visibilité 10 km ou plus
Nuages épars à une hauteur de 4000 ft
Evoluant progressivement
du 24 à 06 UTC au 24 à 08 UTC
Vent 15 kt de nord/nord-ouest
Temporairement
du 24 à 10 UTC au 24 à 12 UTC
pluie

TAF: LYBE 231100Z 2312/2412 27009KT 9999 SCT040 TX16/2313Z TN09/2406Z BECMG 2406/2408 33015KT TEMPO 2410/2412 RA

Observations et prévisions météorologiques de plus de 4000 aéroports (messages METAR et TAF).

Les stations disponibles sont représentées par des disques jaunes et rouges sur la carte.

Passer la souris dessus pour voir le nom de la station.

Cliquer dessus pour voir les observations et prévisions météorologiques.

Pour changer de carte: cliquez sur les boutons verts avec une croix noire pour zoomer, sur le bouton vert avec un tiret pour effectuer un zoom arrière, ou sur les flèches vertes pour les cartes adjacentes.


METAR-TAF: